sensor_id;sensor_type;location;lat;lon;timestamp;P1;durP1;ratioP1;P2;durP2;ratioP2
11962;SDS011;62678;52.130;5.584;2022-08-21T00:02:17;13.23;;;9.57;;
11962;SDS011;62678;52.130;5.584;2022-08-21T00:04:47;16.55;;;9.70;;
11962;SDS011;62678;52.130;5.584;2022-08-21T00:07:15;15.98;;;9.77;;
11962;SDS011;62678;52.130;5.584;2022-08-21T00:09:43;18.27;;;9.43;;
11962;SDS011;62678;52.130;5.584;2022-08-21T00:12:10;13.20;;;9.32;;
11962;SDS011;62678;52.130;5.584;2022-08-21T00:14:37;13.05;;;9.27;;
11962;SDS011;62678;52.130;5.584;2022-08-21T00:17:04;14.88;;;9.43;;
11962;SDS011;62678;52.130;5.584;2022-08-21T00:19:31;22.83;;;11.35;;
11962;SDS011;62678;52.130;5.584;2022-08-21T00:22:00;20.17;;;11.48;;
11962;SDS011;62678;52.130;5.584;2022-08-21T00:24:26;18.67;;;11.05;;
11962;SDS011;62678;52.130;5.584;2022-08-21T00:26:53;18.00;;;10.90;;
11962;SDS011;62678;52.130;5.584;2022-08-21T00:29:20;17.70;;;9.82;;
11962;SDS011;62678;52.130;5.584;2022-08-21T00:31:47;13.63;;;9.68;;
11962;SDS011;62678;52.130;5.584;2022-08-21T00:34:14;15.32;;;9.60;;
11962;SDS011;62678;52.130;5.584;2022-08-21T00:36:41;12.95;;;9.30;;
11962;SDS011;62678;52.130;5.584;2022-08-21T00:39:09;14.57;;;9.68;;
11962;SDS011;62678;52.130;5.584;2022-08-21T00:41:36;15.38;;;9.63;;
11962;SDS011;62678;52.130;5.584;2022-08-21T00:44:05;20.13;;;10.45;;
11962;SDS011;62678;52.130;5.584;2022-08-21T00:46:34;16.35;;;10.27;;
11962;SDS011;62678;52.130;5.584;2022-08-21T00:49:03;18.55;;;10.05;;
11962;SDS011;62678;52.130;5.584;2022-08-21T00:51:33;17.33;;;10.70;;
11962;SDS011;62678;52.130;5.584;2022-08-21T00:54:04;16.52;;;10.13;;
11962;SDS011;62678;52.130;5.584;2022-08-21T00:56:33;18.88;;;11.43;;
11962;SDS011;62678;52.130;5.584;2022-08-21T00:59:01;16.52;;;10.75;;
11962;SDS011;62678;52.130;5.584;2022-08-21T01:01:29;17.42;;;10.68;;
11962;SDS011;62678;52.130;5.584;2022-08-21T01:03:55;22.83;;;9.77;;
11962;SDS011;62678;52.130;5.584;2022-08-21T01:06:22;22.83;;;10.70;;
11962;SDS011;62678;52.130;5.584;2022-08-21T01:08:49;19.23;;;11.07;;
11962;SDS011;62678;52.130;5.584;2022-08-21T01:11:16;13.98;;;10.80;;
11962;SDS011;62678;52.130;5.584;2022-08-21T01:13:44;15.32;;;10.85;;
11962;SDS011;62678;52.130;5.584;2022-08-21T01:16:13;18.42;;;10.82;;
11962;SDS011;62678;52.130;5.584;2022-08-21T01:18:42;15.07;;;11.07;;
11962;SDS011;62678;52.130;5.584;2022-08-21T01:21:12;15.07;;;11.27;;
11962;SDS011;62678;52.130;5.584;2022-08-21T01:23:42;18.08;;;11.88;;
11962;SDS011;62678;52.130;5.584;2022-08-21T01:26:12;19.27;;;11.25;;
11962;SDS011;62678;52.130;5.584;2022-08-21T01:28:42;18.17;;;11.60;;
11962;SDS011;62678;52.130;5.584;2022-08-21T01:31:12;17.90;;;12.77;;
11962;SDS011;62678;52.130;5.584;2022-08-21T01:33:40;24.80;;;14.15;;
11962;SDS011;62678;52.130;5.584;2022-08-21T01:36:08;24.17;;;13.73;;
11962;SDS011;62678;52.130;5.584;2022-08-21T01:38:36;23.35;;;13.93;;
11962;SDS011;62678;52.130;5.584;2022-08-21T01:41:03;19.40;;;13.48;;
11962;SDS011;62678;52.130;5.584;2022-08-21T01:43:30;18.05;;;13.32;;
11962;SDS011;62678;52.130;5.584;2022-08-21T01:45:56;22.77;;;13.25;;
11962;SDS011;62678;52.130;5.584;2022-08-21T01:48:23;17.75;;;12.60;;
11962;SDS011;62678;52.130;5.584;2022-08-21T01:50:50;18.20;;;13.77;;
11962;SDS011;62678;52.130;5.584;2022-08-21T01:53:17;20.08;;;13.77;;
11962;SDS011;62678;52.130;5.584;2022-08-21T01:55:46;19.73;;;13.48;;
11962;SDS011;62678;52.130;5.584;2022-08-21T01:58:13;21.65;;;14.13;;
11962;SDS011;62678;52.130;5.584;2022-08-21T02:00:40;18.05;;;14.40;;
11962;SDS011;62678;52.130;5.584;2022-08-21T02:03:07;21.02;;;13.93;;
11962;SDS011;62678;52.130;5.584;2022-08-21T02:05:34;17.08;;;14.18;;
11962;SDS011;62678;52.130;5.584;2022-08-21T02:08:01;23.95;;;13.65;;
11962;SDS011;62678;52.130;5.584;2022-08-21T02:10:30;21.05;;;15.65;;
11962;SDS011;62678;52.130;5.584;2022-08-21T02:12:59;21.67;;;13.70;;
11962;SDS011;62678;52.130;5.584;2022-08-21T02:15:26;23.15;;;15.85;;
11962;SDS011;62678;52.130;5.584;2022-08-21T02:17:54;21.58;;;15.98;;
11962;SDS011;62678;52.130;5.584;2022-08-21T02:20:23;20.45;;;14.65;;
11962;SDS011;62678;52.130;5.584;2022-08-21T02:22:52;22.20;;;14.55;;
11962;SDS011;62678;52.130;5.584;2022-08-21T02:25:19;19.45;;;14.57;;
11962;SDS011;62678;52.130;5.584;2022-08-21T02:27:47;22.67;;;15.07;;
11962;SDS011;62678;52.130;5.584;2022-08-21T02:30:17;22.42;;;14.65;;
11962;SDS011;62678;52.130;5.584;2022-08-21T02:32:46;18.30;;;14.13;;
11962;SDS011;62678;52.130;5.584;2022-08-21T02:35:13;19.83;;;14.27;;
11962;SDS011;62678;52.130;5.584;2022-08-21T02:37:44;20.20;;;14.43;;
11962;SDS011;62678;52.130;5.584;2022-08-21T02:40:13;21.48;;;14.85;;
11962;SDS011;62678;52.130;5.584;2022-08-21T02:42:41;20.02;;;14.98;;
11962;SDS011;62678;52.130;5.584;2022-08-21T02:45:08;20.50;;;15.38;;
11962;SDS011;62678;52.130;5.584;2022-08-21T02:47:37;22.67;;;15.05;;
11962;SDS011;62678;52.130;5.584;2022-08-21T02:50:05;22.83;;;15.20;;
11962;SDS011;62678;52.130;5.584;2022-08-21T02:52:32;18.08;;;13.75;;
11962;SDS011;62678;52.130;5.584;2022-08-21T02:54:59;22.17;;;15.13;;
11962;SDS011;62678;52.130;5.584;2022-08-21T02:57:26;19.75;;;14.35;;
11962;SDS011;62678;52.130;5.584;2022-08-21T02:59:53;18.33;;;14.40;;
11962;SDS011;62678;52.130;5.584;2022-08-21T03:02:19;23.85;;;15.57;;
11962;SDS011;62678;52.130;5.584;2022-08-21T03:04:48;22.88;;;15.60;;
11962;SDS011;62678;52.130;5.584;2022-08-21T03:07:14;22.45;;;15.35;;
11962;SDS011;62678;52.130;5.584;2022-08-21T03:09:41;22.30;;;15.57;;
11962;SDS011;62678;52.130;5.584;2022-08-21T03:12:08;20.15;;;14.70;;
11962;SDS011;62678;52.130;5.584;2022-08-21T03:14:34;22.92;;;14.88;;
11962;SDS011;62678;52.130;5.584;2022-08-21T03:17:03;21.15;;;14.95;;
11962;SDS011;62678;52.130;5.584;2022-08-21T03:19:30;21.17;;;14.57;;
11962;SDS011;62678;52.130;5.584;2022-08-21T03:21:58;19.27;;;14.20;;
11962;SDS011;62678;52.130;5.584;2022-08-21T03:24:25;22.85;;;15.15;;
11962;SDS011;62678;52.130;5.584;2022-08-21T03:26:51;22.08;;;14.77;;
11962;SDS011;62678;52.130;5.584;2022-08-21T03:29:18;23.27;;;15.70;;
11962;SDS011;62678;52.130;5.584;2022-08-21T03:31:45;19.77;;;14.88;;
11962;SDS011;62678;52.130;5.584;2022-08-21T03:34:12;22.83;;;14.77;;
11962;SDS011;62678;52.130;5.584;2022-08-21T03:36:39;21.90;;;15.13;;
11962;SDS011;62678;52.130;5.584;2022-08-21T03:39:08;27.73;;;16.17;;
11962;SDS011;62678;52.130;5.584;2022-08-21T03:41:34;25.95;;;16.13;;
11962;SDS011;62678;52.130;5.584;2022-08-21T03:44:01;32.63;;;16.67;;
11962;SDS011;62678;52.130;5.584;2022-08-21T03:46:28;24.55;;;16.63;;
11962;SDS011;62678;52.130;5.584;2022-08-21T03:48:55;26.70;;;17.35;;
11962;SDS011;62678;52.130;5.584;2022-08-21T03:51:22;29.02;;;17.35;;
11962;SDS011;62678;52.130;5.584;2022-08-21T03:53:49;22.25;;;16.88;;
11962;SDS011;62678;52.130;5.584;2022-08-21T03:56:17;26.27;;;17.00;;
11962;SDS011;62678;52.130;5.584;2022-08-21T03:58:44;22.65;;;17.02;;
11962;SDS011;62678;52.130;5.584;2022-08-21T04:01:10;27.23;;;17.25;;
11962;SDS011;62678;52.130;5.584;2022-08-21T04:03:37;23.13;;;16.98;;
11962;SDS011;62678;52.130;5.584;2022-08-21T04:06:05;26.85;;;17.20;;
11962;SDS011;62678;52.130;5.584;2022-08-21T04:08:33;23.02;;;16.90;;
11962;SDS011;62678;52.130;5.584;2022-08-21T04:11:00;31.98;;;19.45;;
11962;SDS011;62678;52.130;5.584;2022-08-21T04:13:28;25.35;;;17.13;;
11962;SDS011;62678;52.130;5.584;2022-08-21T04:15:55;27.85;;;17.98;;
11962;SDS011;62678;52.130;5.584;2022-08-21T04:18:24;26.15;;;17.38;;
11962;SDS011;62678;52.130;5.584;2022-08-21T04:20:51;25.65;;;17.23;;
11962;SDS011;62678;52.130;5.584;2022-08-21T04:23:20;23.13;;;17.05;;
11962;SDS011;62678;52.130;5.584;2022-08-21T04:25:49;26.13;;;18.13;;
11962;SDS011;62678;52.130;5.584;2022-08-21T04:28:17;25.73;;;18.55;;
11962;SDS011;62678;52.130;5.584;2022-08-21T04:30:45;26.77;;;18.15;;
11962;SDS011;62678;52.130;5.584;2022-08-21T04:33:13;24.48;;;17.50;;
11962;SDS011;62678;52.130;5.584;2022-08-21T04:35:40;26.35;;;16.88;;
11962;SDS011;62678;52.130;5.584;2022-08-21T04:38:07;27.45;;;17.20;;
11962;SDS011;62678;52.130;5.584;2022-08-21T04:40:35;27.23;;;16.83;;
11962;SDS011;62678;52.130;5.584;2022-08-21T04:43:03;23.63;;;16.55;;
11962;SDS011;62678;52.130;5.584;2022-08-21T04:45:32;21.83;;;16.55;;
11962;SDS011;62678;52.130;5.584;2022-08-21T04:48:03;27.13;;;16.92;;
11962;SDS011;62678;52.130;5.584;2022-08-21T04:50:35;24.75;;;16.33;;
11962;SDS011;62678;52.130;5.584;2022-08-21T04:53:05;23.48;;;16.00;;
11962;SDS011;62678;52.130;5.584;2022-08-21T04:55:38;24.13;;;16.10;;
11962;SDS011;62678;52.130;5.584;2022-08-21T04:58:20;24.10;;;16.48;;
11962;SDS011;62678;52.130;5.584;2022-08-21T05:00:49;26.15;;;16.30;;
11962;SDS011;62678;52.130;5.584;2022-08-21T05:03:37;27.75;;;16.80;;
11962;SDS011;62678;52.130;5.584;2022-08-21T05:06:12;27.83;;;15.60;;
11962;SDS011;62678;52.130;5.584;2022-08-21T05:08:42;23.70;;;16.08;;
11962;SDS011;62678;52.130;5.584;2022-08-21T05:11:11;19.17;;;15.77;;
11962;SDS011;62678;52.130;5.584;2022-08-21T05:13:38;23.30;;;16.08;;
11962;SDS011;62678;52.130;5.584;2022-08-21T05:16:06;26.23;;;16.50;;
11962;SDS011;62678;52.130;5.584;2022-08-21T05:18:33;23.83;;;15.90;;
11962;SDS011;62678;52.130;5.584;2022-08-21T05:21:01;22.17;;;15.73;;
11962;SDS011;62678;52.130;5.584;2022-08-21T05:23:28;21.73;;;15.45;;
11962;SDS011;62678;52.130;5.584;2022-08-21T05:25:55;22.02;;;15.48;;
11962;SDS011;62678;52.130;5.584;2022-08-21T05:28:22;22.80;;;15.40;;
11962;SDS011;62678;52.130;5.584;2022-08-21T05:30:50;21.02;;;14.88;;
11962;SDS011;62678;52.130;5.584;2022-08-21T05:33:18;21.25;;;14.70;;
11962;SDS011;62678;52.130;5.584;2022-08-21T05:35:48;18.52;;;14.05;;
11962;SDS011;62678;52.130;5.584;2022-08-21T05:38:17;20.55;;;14.23;;
11962;SDS011;62678;52.130;5.584;2022-08-21T05:40:45;18.88;;;13.75;;
11962;SDS011;62678;52.130;5.584;2022-08-21T05:43:12;18.95;;;14.10;;
11962;SDS011;62678;52.130;5.584;2022-08-21T05:45:39;19.95;;;14.50;;
11962;SDS011;62678;52.130;5.584;2022-08-21T05:48:06;18.40;;;13.23;;
11962;SDS011;62678;52.130;5.584;2022-08-21T05:50:34;22.65;;;14.48;;
11962;SDS011;62678;52.130;5.584;2022-08-21T05:53:03;23.23;;;13.82;;
11962;SDS011;62678;52.130;5.584;2022-08-21T05:55:31;22.65;;;14.35;;
11962;SDS011;62678;52.130;5.584;2022-08-21T05:57:58;24.98;;;14.13;;
11962;SDS011;62678;52.130;5.584;2022-08-21T06:00:25;25.67;;;14.75;;
11962;SDS011;62678;52.130;5.584;2022-08-21T06:02:51;18.85;;;14.15;;
11962;SDS011;62678;52.130;5.584;2022-08-21T06:05:18;19.95;;;14.38;;
11962;SDS011;62678;52.130;5.584;2022-08-21T06:07:45;20.58;;;13.88;;
11962;SDS011;62678;52.130;5.584;2022-08-21T06:10:12;23.13;;;13.85;;
11962;SDS011;62678;52.130;5.584;2022-08-21T06:12:40;20.27;;;12.52;;
11962;SDS011;62678;52.130;5.584;2022-08-21T06:15:07;18.98;;;12.25;;
11962;SDS011;62678;52.130;5.584;2022-08-21T06:17:34;19.15;;;13.10;;
11962;SDS011;62678;52.130;5.584;2022-08-21T06:20:01;16.27;;;12.13;;
11962;SDS011;62678;52.130;5.584;2022-08-21T06:22:29;18.33;;;12.15;;
11962;SDS011;62678;52.130;5.584;2022-08-21T06:24:56;19.55;;;12.70;;
11962;SDS011;62678;52.130;5.584;2022-08-21T06:27:23;22.67;;;11.88;;
11962;SDS011;62678;52.130;5.584;2022-08-21T06:29:51;16.60;;;11.60;;
11962;SDS011;62678;52.130;5.584;2022-08-21T06:32:18;22.27;;;12.35;;
11962;SDS011;62678;52.130;5.584;2022-08-21T06:34:44;20.65;;;11.52;;
11962;SDS011;62678;52.130;5.584;2022-08-21T06:37:11;24.45;;;11.85;;
11962;SDS011;62678;52.130;5.584;2022-08-21T06:39:38;23.02;;;11.05;;
11962;SDS011;62678;52.130;5.584;2022-08-21T06:42:05;25.75;;;11.32;;
11962;SDS011;62678;52.130;5.584;2022-08-21T06:44:32;19.83;;;10.85;;
11962;SDS011;62678;52.130;5.584;2022-08-21T06:47:00;23.13;;;11.30;;
11962;SDS011;62678;52.130;5.584;2022-08-21T06:49:26;18.33;;;10.07;;
11962;SDS011;62678;52.130;5.584;2022-08-21T06:51:53;19.45;;;9.93;;
11962;SDS011;62678;52.130;5.584;2022-08-21T06:54:20;22.15;;;9.63;;
11962;SDS011;62678;52.130;5.584;2022-08-21T06:56:47;17.55;;;8.95;;
11962;SDS011;62678;52.130;5.584;2022-08-21T06:59:14;21.50;;;9.43;;
11962;SDS011;62678;52.130;5.584;2022-08-21T07:01:42;21.23;;;9.52;;
11962;SDS011;62678;52.130;5.584;2022-08-21T07:04:11;21.00;;;8.45;;
11962;SDS011;62678;52.130;5.584;2022-08-21T07:06:38;19.20;;;8.90;;
11962;SDS011;62678;52.130;5.584;2022-08-21T07:09:05;17.85;;;8.85;;
11962;SDS011;62678;52.130;5.584;2022-08-21T07:11:33;21.60;;;9.05;;
11962;SDS011;62678;52.130;5.584;2022-08-21T07:14:01;21.25;;;8.85;;
11962;SDS011;62678;52.130;5.584;2022-08-21T07:16:28;21.75;;;8.88;;
11962;SDS011;62678;52.130;5.584;2022-08-21T07:18:55;18.63;;;8.93;;
11962;SDS011;62678;52.130;5.584;2022-08-21T07:21:23;20.17;;;9.20;;
11962;SDS011;62678;52.130;5.584;2022-08-21T07:23:50;18.23;;;8.68;;
11962;SDS011;62678;52.130;5.584;2022-08-21T07:26:18;23.92;;;9.48;;
11962;SDS011;62678;52.130;5.584;2022-08-21T07:28:47;19.83;;;8.90;;
11962;SDS011;62678;52.130;5.584;2022-08-21T07:31:17;20.73;;;8.60;;
11962;SDS011;62678;52.130;5.584;2022-08-21T07:33:46;21.92;;;10.05;;
11962;SDS011;62678;52.130;5.584;2022-08-21T07:36:13;16.52;;;8.68;;
11962;SDS011;62678;52.130;5.584;2022-08-21T07:38:41;18.52;;;8.48;;
11962;SDS011;62678;52.130;5.584;2022-08-21T07:41:12;19.05;;;9.13;;
11962;SDS011;62678;52.130;5.584;2022-08-21T07:43:43;24.17;;;9.00;;
11962;SDS011;62678;52.130;5.584;2022-08-21T07:46:10;20.23;;;9.05;;
11962;SDS011;62678;52.130;5.584;2022-08-21T07:48:38;23.92;;;9.85;;
11962;SDS011;62678;52.130;5.584;2022-08-21T07:51:06;21.85;;;9.30;;
11962;SDS011;62678;52.130;5.584;2022-08-21T07:53:36;19.73;;;8.55;;
11962;SDS011;62678;52.130;5.584;2022-08-21T07:56:05;21.88;;;8.52;;
11962;SDS011;62678;52.130;5.584;2022-08-21T07:58:33;19.23;;;8.57;;
11962;SDS011;62678;52.130;5.584;2022-08-21T08:01:00;18.60;;;8.40;;
11962;SDS011;62678;52.130;5.584;2022-08-21T08:03:26;20.55;;;8.43;;
11962;SDS011;62678;52.130;5.584;2022-08-21T08:05:53;20.95;;;8.55;;
11962;SDS011;62678;52.130;5.584;2022-08-21T08:08:20;20.60;;;8.35;;
11962;SDS011;62678;52.130;5.584;2022-08-21T08:10:47;17.42;;;7.72;;
11962;SDS011;62678;52.130;5.584;2022-08-21T08:13:16;19.83;;;8.10;;
11962;SDS011;62678;52.130;5.584;2022-08-21T08:15:43;17.30;;;8.05;;
11962;SDS011;62678;52.130;5.584;2022-08-21T08:18:11;20.38;;;8.55;;
11962;SDS011;62678;52.130;5.584;2022-08-21T08:20:39;16.60;;;7.18;;
11962;SDS011;62678;52.130;5.584;2022-08-21T08:23:06;18.27;;;8.48;;
11962;SDS011;62678;52.130;5.584;2022-08-21T08:25:36;19.25;;;7.65;;
11962;SDS011;62678;52.130;5.584;2022-08-21T08:28:04;21.10;;;7.90;;
11962;SDS011;62678;52.130;5.584;2022-08-21T08:30:33;20.80;;;7.70;;
11962;SDS011;62678;52.130;5.584;2022-08-21T08:33:00;17.00;;;7.05;;
11962;SDS011;62678;52.130;5.584;2022-08-21T08:35:27;17.02;;;6.90;;
11962;SDS011;62678;52.130;5.584;2022-08-21T08:37:54;19.67;;;6.72;;
11962;SDS011;62678;52.130;5.584;2022-08-21T08:40:22;21.48;;;6.55;;
11962;SDS011;62678;52.130;5.584;2022-08-21T08:42:58;17.05;;;6.25;;
11962;SDS011;62678;52.130;5.584;2022-08-21T08:45:25;19.70;;;6.35;;
11962;SDS011;62678;52.130;5.584;2022-08-21T08:47:55;17.85;;;6.30;;
11962;SDS011;62678;52.130;5.584;2022-08-21T08:50:27;22.17;;;6.78;;
11962;SDS011;62678;52.130;5.584;2022-08-21T08:52:59;16.63;;;5.47;;
11962;SDS011;62678;52.130;5.584;2022-08-21T08:55:32;15.98;;;5.43;;
11962;SDS011;62678;52.130;5.584;2022-08-21T08:58:00;15.15;;;5.93;;
11962;SDS011;62678;52.130;5.584;2022-08-21T09:00:28;15.70;;;5.30;;
11962;SDS011;62678;52.130;5.584;2022-08-21T09:02:59;16.98;;;5.72;;
11962;SDS011;62678;52.130;5.584;2022-08-21T09:05:29;13.85;;;4.65;;
11962;SDS011;62678;52.130;5.584;2022-08-21T09:08:10;17.75;;;4.82;;
11962;SDS011;62678;52.130;5.584;2022-08-21T09:10:48;16.63;;;4.65;;
11962;SDS011;62678;52.130;5.584;2022-08-21T09:13:25;10.60;;;3.78;;
11962;SDS011;62678;52.130;5.584;2022-08-21T09:16:02;13.70;;;4.10;;
11962;SDS011;62678;52.130;5.584;2022-08-21T09:18:38;14.77;;;4.15;;
11962;SDS011;62678;52.130;5.584;2022-08-21T09:21:14;15.10;;;3.70;;
11962;SDS011;62678;52.130;5.584;2022-08-21T09:23:49;16.08;;;4.28;;
11962;SDS011;62678;52.130;5.584;2022-08-21T09:26:23;13.57;;;3.80;;
11962;SDS011;62678;52.130;5.584;2022-08-21T09:28:52;12.07;;;3.20;;
11962;SDS011;62678;52.130;5.584;2022-08-21T09:31:22;11.55;;;3.13;;
11962;SDS011;62678;52.130;5.584;2022-08-21T09:33:58;11.93;;;3.47;;
11962;SDS011;62678;52.130;5.584;2022-08-21T09:36:31;11.30;;;3.03;;
11962;SDS011;62678;52.130;5.584;2022-08-21T09:39:02;14.50;;;3.88;;
11962;SDS011;62678;52.130;5.584;2022-08-21T09:41:30;12.48;;;3.80;;
11962;SDS011;62678;52.130;5.584;2022-08-21T09:44:00;10.93;;;3.65;;
11962;SDS011;62678;52.130;5.584;2022-08-21T09:46:28;10.45;;;3.30;;
11962;SDS011;62678;52.130;5.584;2022-08-21T09:48:55;11.50;;;2.97;;
11962;SDS011;62678;52.130;5.584;2022-08-21T09:51:25;10.02;;;3.20;;
11962;SDS011;62678;52.130;5.584;2022-08-21T09:53:54;16.45;;;3.67;;
11962;SDS011;62678;52.130;5.584;2022-08-21T09:56:28;11.10;;;3.15;;
11962;SDS011;62678;52.130;5.584;2022-08-21T09:59:17;12.07;;;2.80;;
11962;SDS011;62678;52.130;5.584;2022-08-21T10:01:47;13.60;;;2.90;;
11962;SDS011;62678;52.130;5.584;2022-08-21T10:04:20;12.38;;;2.97;;
11962;SDS011;62678;52.130;5.584;2022-08-21T10:06:49;10.57;;;2.67;;
11962;SDS011;62678;52.130;5.584;2022-08-21T10:09:17;15.23;;;3.40;;
11962;SDS011;62678;52.130;5.584;2022-08-21T10:11:46;13.82;;;3.30;;
11962;SDS011;62678;52.130;5.584;2022-08-21T10:14:19;10.50;;;3.05;;
11962;SDS011;62678;52.130;5.584;2022-08-21T10:17:00;10.00;;;3.10;;
11962;SDS011;62678;52.130;5.584;2022-08-21T10:19:33;12.35;;;2.65;;
11962;SDS011;62678;52.130;5.584;2022-08-21T10:22:12;8.30;;;2.47;;
11962;SDS011;62678;52.130;5.584;2022-08-21T10:24:47;11.40;;;2.63;;
11962;SDS011;62678;52.130;5.584;2022-08-21T10:27:22;11.13;;;2.63;;
11962;SDS011;62678;52.130;5.584;2022-08-21T10:29:59;9.25;;;2.42;;
11962;SDS011;62678;52.130;5.584;2022-08-21T10:32:41;12.77;;;3.30;;
11962;SDS011;62678;52.130;5.584;2022-08-21T10:35:21;12.68;;;2.78;;
11962;SDS011;62678;52.130;5.584;2022-08-21T10:37:57;11.32;;;2.70;;
11962;SDS011;62678;52.130;5.584;2022-08-21T10:40:44;10.30;;;3.00;;
11962;SDS011;62678;52.130;5.584;2022-08-21T10:43:21;13.55;;;3.20;;
11962;SDS011;62678;52.130;5.584;2022-08-21T10:45:59;13.20;;;3.35;;
11962;SDS011;62678;52.130;5.584;2022-08-21T10:48:33;11.10;;;2.60;;
11962;SDS011;62678;52.130;5.584;2022-08-21T10:51:06;10.82;;;2.55;;
11962;SDS011;62678;52.130;5.584;2022-08-21T10:53:51;11.05;;;2.60;;
11962;SDS011;62678;52.130;5.584;2022-08-21T10:56:27;9.88;;;2.03;;
11962;SDS011;62678;52.130;5.584;2022-08-21T10:59:00;8.38;;;2.13;;
11962;SDS011;62678;52.130;5.584;2022-08-21T11:01:36;8.73;;;2.13;;
11962;SDS011;62678;52.130;5.584;2022-08-21T11:04:12;15.05;;;2.55;;
11962;SDS011;62678;52.130;5.584;2022-08-21T11:06:45;6.15;;;2.00;;
11962;SDS011;62678;52.130;5.584;2022-08-21T11:09:17;7.55;;;2.22;;
11962;SDS011;62678;52.130;5.584;2022-08-21T11:11:49;9.70;;;2.50;;
11962;SDS011;62678;52.130;5.584;2022-08-21T11:14:22;7.03;;;2.10;;
11962;SDS011;62678;52.130;5.584;2022-08-21T11:16:59;13.70;;;3.05;;
11962;SDS011;62678;52.130;5.584;2022-08-21T11:19:34;7.68;;;1.88;;
11962;SDS011;62678;52.130;5.584;2022-08-21T11:22:11;6.82;;;2.00;;
11962;SDS011;62678;52.130;5.584;2022-08-21T11:24:42;7.15;;;2.17;;
11962;SDS011;62678;52.130;5.584;2022-08-21T11:27:17;8.80;;;2.20;;
11962;SDS011;62678;52.130;5.584;2022-08-21T11:29:48;11.35;;;5.35;;
11962;SDS011;62678;52.130;5.584;2022-08-21T11:32:23;9.15;;;2.95;;
11962;SDS011;62678;52.130;5.584;2022-08-21T11:35:00;6.93;;;2.10;;
11962;SDS011;62678;52.130;5.584;2022-08-21T11:37:42;8.82;;;2.00;;
11962;SDS011;62678;52.130;5.584;2022-08-21T11:40:18;6.30;;;1.63;;
11962;SDS011;62678;52.130;5.584;2022-08-21T11:42:58;6.82;;;1.92;;
11962;SDS011;62678;52.130;5.584;2022-08-21T11:45:35;9.23;;;2.05;;
11962;SDS011;62678;52.130;5.584;2022-08-21T11:48:09;5.70;;;1.88;;
11962;SDS011;62678;52.130;5.584;2022-08-21T11:50:42;8.82;;;2.00;;
11962;SDS011;62678;52.130;5.584;2022-08-21T11:53:13;9.98;;;2.00;;
11962;SDS011;62678;52.130;5.584;2022-08-21T11:55:44;9.02;;;1.90;;
11962;SDS011;62678;52.130;5.584;2022-08-21T11:58:18;7.63;;;1.80;;
11962;SDS011;62678;52.130;5.584;2022-08-21T12:00:49;7.80;;;1.73;;
11962;SDS011;62678;52.130;5.584;2022-08-21T12:03:22;6.63;;;1.55;;
11962;SDS011;62678;52.130;5.584;2022-08-21T12:05:53;8.30;;;2.15;;
11962;SDS011;62678;52.130;5.584;2022-08-21T12:08:29;7.93;;;1.80;;
11962;SDS011;62678;52.130;5.584;2022-08-21T12:11:02;7.85;;;1.77;;
11962;SDS011;62678;52.130;5.584;2022-08-21T12:13:32;6.07;;;1.95;;
11962;SDS011;62678;52.130;5.584;2022-08-21T12:16:05;6.72;;;2.00;;
11962;SDS011;62678;52.130;5.584;2022-08-21T12:18:33;6.57;;;1.85;;
11962;SDS011;62678;52.130;5.584;2022-08-21T12:21:04;8.52;;;1.90;;
11962;SDS011;62678;52.130;5.584;2022-08-21T12:23:46;8.40;;;2.10;;
11962;SDS011;62678;52.130;5.584;2022-08-21T12:26:20;6.88;;;1.73;;
11962;SDS011;62678;52.130;5.584;2022-08-21T12:28:50;10.55;;;2.33;;
11962;SDS011;62678;52.130;5.584;2022-08-21T12:31:18;7.18;;;2.03;;
11962;SDS011;62678;52.130;5.584;2022-08-21T12:33:51;6.55;;;2.20;;
11962;SDS011;62678;52.130;5.584;2022-08-21T12:36:22;5.38;;;1.70;;
11962;SDS011;62678;52.130;5.584;2022-08-21T12:38:54;7.50;;;1.70;;
11962;SDS011;62678;52.130;5.584;2022-08-21T12:41:24;5.50;;;1.90;;
11962;SDS011;62678;52.130;5.584;2022-08-21T12:43:56;9.13;;;2.15;;
11962;SDS011;62678;52.130;5.584;2022-08-21T12:49:12;10.05;;;2.40;;
11962;SDS011;62678;52.130;5.584;2022-08-21T12:51:49;10.15;;;2.17;;
11962;SDS011;62678;52.130;5.584;2022-08-21T12:54:26;5.53;;;2.25;;
11962;SDS011;62678;52.130;5.584;2022-08-21T12:56:58;10.45;;;3.00;;
11962;SDS011;62678;52.130;5.584;2022-08-21T12:59:27;10.00;;;2.50;;
11962;SDS011;62678;52.130;5.584;2022-08-21T13:01:54;6.90;;;2.38;;
11962;SDS011;62678;52.130;5.584;2022-08-21T13:04:24;6.32;;;2.22;;
11962;SDS011;62678;52.130;5.584;2022-08-21T13:06:58;8.57;;;2.30;;
11962;SDS011;62678;52.130;5.584;2022-08-21T13:09:27;8.30;;;2.35;;
11962;SDS011;62678;52.130;5.584;2022-08-21T13:11:56;6.57;;;1.83;;
11962;SDS011;62678;52.130;5.584;2022-08-21T13:14:26;7.72;;;2.20;;
11962;SDS011;62678;52.130;5.584;2022-08-21T13:16:56;11.05;;;2.53;;
11962;SDS011;62678;52.130;5.584;2022-08-21T13:19:24;7.85;;;1.75;;
11962;SDS011;62678;52.130;5.584;2022-08-21T13:21:51;9.32;;;2.00;;
11962;SDS011;62678;52.130;5.584;2022-08-21T13:24:19;8.25;;;1.98;;
11962;SDS011;62678;52.130;5.584;2022-08-21T13:26:49;9.05;;;1.92;;
11962;SDS011;62678;52.130;5.584;2022-08-21T13:29:18;8.00;;;2.05;;
11962;SDS011;62678;52.130;5.584;2022-08-21T13:31:49;5.00;;;1.80;;
11962;SDS011;62678;52.130;5.584;2022-08-21T13:34:18;5.88;;;2.50;;
11962;SDS011;62678;52.130;5.584;2022-08-21T13:36:46;8.27;;;1.98;;
11962;SDS011;62678;52.130;5.584;2022-08-21T13:39:15;5.35;;;1.83;;
11962;SDS011;62678;52.130;5.584;2022-08-21T13:41:45;6.93;;;1.75;;
11962;SDS011;62678;52.130;5.584;2022-08-21T13:44:17;7.65;;;1.80;;
11962;SDS011;62678;52.130;5.584;2022-08-21T13:46:46;6.20;;;2.00;;
11962;SDS011;62678;52.130;5.584;2022-08-21T13:49:16;6.82;;;2.00;;
11962;SDS011;62678;52.130;5.584;2022-08-21T13:51:44;4.63;;;1.88;;
11962;SDS011;62678;52.130;5.584;2022-08-21T13:54:23;7.30;;;1.70;;
11962;SDS011;62678;52.130;5.584;2022-08-21T13:56:52;6.95;;;1.60;;
11962;SDS011;62678;52.130;5.584;2022-08-21T13:59:25;7.38;;;1.65;;
11962;SDS011;62678;52.130;5.584;2022-08-21T14:01:54;12.60;;;2.20;;
11962;SDS011;62678;52.130;5.584;2022-08-21T14:04:25;5.60;;;1.58;;
11962;SDS011;62678;52.130;5.584;2022-08-21T14:06:57;8.15;;;1.88;;
11962;SDS011;62678;52.130;5.584;2022-08-21T14:09:24;7.10;;;1.95;;
11962;SDS011;62678;52.130;5.584;2022-08-21T14:11:56;9.90;;;1.90;;
11962;SDS011;62678;52.130;5.584;2022-08-21T14:14:28;8.13;;;2.00;;
11962;SDS011;62678;52.130;5.584;2022-08-21T14:16:59;6.80;;;1.90;;
11962;SDS011;62678;52.130;5.584;2022-08-21T14:19:35;5.32;;;1.52;;
11962;SDS011;62678;52.130;5.584;2022-08-21T14:24:58;8.55;;;2.08;;
11962;SDS011;62678;52.130;5.584;2022-08-21T14:27:27;7.57;;;1.83;;
11962;SDS011;62678;52.130;5.584;2022-08-21T14:29:58;6.55;;;1.70;;
11962;SDS011;62678;52.130;5.584;2022-08-21T14:32:27;9.60;;;1.80;;
11962;SDS011;62678;52.130;5.584;2022-08-21T14:34:56;11.55;;;2.10;;
11962;SDS011;62678;52.130;5.584;2022-08-21T14:37:23;5.72;;;1.77;;
11962;SDS011;62678;52.130;5.584;2022-08-21T14:39:50;6.38;;;1.80;;
11962;SDS011;62678;52.130;5.584;2022-08-21T14:42:17;7.40;;;1.90;;
11962;SDS011;62678;52.130;5.584;2022-08-21T14:44:44;5.13;;;2.22;;
11962;SDS011;62678;52.130;5.584;2022-08-21T14:47:12;7.35;;;2.42;;
11962;SDS011;62678;52.130;5.584;2022-08-21T14:49:39;9.60;;;2.10;;
11962;SDS011;62678;52.130;5.584;2022-08-21T14:52:06;8.25;;;2.20;;